createdAt,value
2018-06-21T00:00:57.755Z,997.41
2018-06-21T00:01:57.797Z,997.39
2018-06-21T00:02:57.832Z,997.43
2018-06-21T00:03:57.869Z,997.38
2018-06-21T00:04:57.906Z,997.38
2018-06-21T00:05:57.943Z,997.40
2018-06-21T00:06:57.981Z,997.35
2018-06-21T00:07:58.018Z,997.38
2018-06-21T00:08:58.056Z,997.35
2018-06-21T00:09:58.094Z,997.38
2018-06-21T00:10:58.131Z,997.30
2018-06-21T00:11:58.168Z,997.30
2018-06-21T00:12:58.205Z,997.30
2018-06-21T00:13:58.243Z,997.31
2018-06-21T00:14:58.282Z,997.30
2018-06-21T00:15:58.317Z,997.25
2018-06-21T00:16:58.356Z,997.26
2018-06-21T00:17:58.393Z,997.25
2018-06-21T00:18:58.430Z,997.25
2018-06-21T00:19:58.470Z,997.22
2018-06-21T00:20:58.504Z,997.25
2018-06-21T00:21:58.543Z,997.20
2018-06-21T00:22:58.578Z,997.22
2018-06-21T00:23:58.616Z,997.21
2018-06-21T00:24:58.653Z,997.24
2018-06-21T00:25:58.691Z,997.21
2018-06-21T00:26:58.728Z,997.20
2018-06-21T00:27:58.765Z,997.18
2018-06-21T00:28:58.802Z,997.22
2018-06-21T00:29:58.839Z,997.22
2018-06-21T00:30:58.877Z,997.22
2018-06-21T00:31:58.913Z,997.24
2018-06-21T00:32:58.951Z,997.22
2018-06-21T00:33:58.988Z,997.21
2018-06-21T00:34:59.026Z,997.20
2018-06-21T00:35:59.062Z,997.20
2018-06-21T00:36:59.102Z,997.22
2018-06-21T00:37:59.137Z,997.26
2018-06-21T00:38:59.174Z,997.21
2018-06-21T00:39:59.209Z,997.20
2018-06-21T00:40:59.248Z,997.15
2018-06-21T00:41:59.300Z,997.15
2018-06-21T00:42:59.326Z,997.16
2018-06-21T00:43:59.359Z,997.12
2018-06-21T00:44:59.399Z,997.14
2018-06-21T00:45:59.433Z,997.15
2018-06-21T00:46:59.470Z,997.14
2018-06-21T00:47:59.507Z,997.13
2018-06-21T00:48:59.545Z,997.14
2018-06-21T00:49:59.580Z,997.15
2018-06-21T00:50:59.619Z,997.18
2018-06-21T00:51:59.655Z,997.17
2018-06-21T00:52:59.695Z,997.14
2018-06-21T00:53:59.730Z,997.15
2018-06-21T00:54:59.766Z,997.17
2018-06-21T00:55:59.805Z,997.14
2018-06-21T00:56:59.840Z,997.16
2018-06-21T00:57:59.880Z,997.15
2018-06-21T00:58:59.915Z,997.14
2018-06-21T00:59:59.951Z,997.13
2018-06-21T01:00:59.989Z,997.13
2018-06-21T01:02:00.031Z,997.14
2018-06-21T01:03:00.124Z,997.11
2018-06-21T01:04:00.099Z,997.12
2018-06-21T01:05:00.137Z,997.14
2018-06-21T01:06:00.175Z,997.13
2018-06-21T01:07:00.210Z,997.14
2018-06-21T01:08:00.247Z,997.15
2018-06-21T01:09:00.283Z,997.20
2018-06-21T01:10:00.324Z,997.17
2018-06-21T01:11:00.358Z,997.19
2018-06-21T01:12:00.395Z,997.19
2018-06-21T01:13:00.434Z,997.21
2018-06-21T01:14:00.468Z,997.21
2018-06-21T01:15:00.506Z,997.19
2018-06-21T01:16:00.542Z,997.21
2018-06-21T01:17:00.579Z,997.20
2018-06-21T01:18:00.616Z,997.19
2018-06-21T01:19:00.653Z,997.16
2018-06-21T01:20:00.690Z,997.18
2018-06-21T01:21:00.725Z,997.16
2018-06-21T01:22:00.763Z,997.17
2018-06-21T01:23:00.800Z,997.17
2018-06-21T01:24:00.836Z,997.18
2018-06-21T01:25:00.874Z,997.20
2018-06-21T01:26:00.911Z,997.15
2018-06-21T01:27:00.951Z,997.13
2018-06-21T01:28:00.984Z,997.13
2018-06-21T01:29:01.021Z,997.11
2018-06-21T01:30:01.059Z,997.13
2018-06-21T01:31:01.095Z,997.08
2018-06-21T01:32:01.131Z,997.06
2018-06-21T01:33:01.168Z,997.04
2018-06-21T01:34:01.208Z,997.04
2018-06-21T01:35:01.241Z,997.05
2018-06-21T01:36:01.278Z,997.04
2018-06-21T01:37:01.315Z,997.05
2018-06-21T01:38:01.355Z,997.06
2018-06-21T01:39:01.392Z,997.10
2018-06-21T01:40:01.427Z,997.06
2018-06-21T01:41:01.463Z,997.08
2018-06-21T01:42:01.498Z,997.11
2018-06-21T01:43:01.536Z,997.12
2018-06-21T01:44:01.574Z,997.07
2018-06-21T01:45:01.609Z,997.06
2018-06-21T01:46:01.646Z,997.08
2018-06-21T01:47:01.686Z,997.09
2018-06-21T01:48:01.720Z,997.09
2018-06-21T01:49:01.755Z,997.09
2018-06-21T01:50:01.794Z,997.13
2018-06-21T01:51:01.832Z,997.12
2018-06-21T01:52:01.864Z,997.15
2018-06-21T01:53:01.901Z,997.10
2018-06-21T01:54:01.939Z,997.11
2018-06-21T01:55:01.975Z,997.13
2018-06-21T01:56:02.010Z,997.11
2018-06-21T01:57:02.056Z,997.09
2018-06-21T01:58:02.087Z,997.08
2018-06-21T01:59:02.122Z,997.10
2018-06-21T02:00:02.158Z,997.11
2018-06-21T02:01:02.194Z,997.09
2018-06-21T02:02:02.231Z,997.08
2018-06-21T02:03:02.272Z,997.10
2018-06-21T02:04:02.302Z,997.12
2018-06-21T02:05:02.340Z,997.13
2018-06-21T02:06:02.377Z,997.09
2018-06-21T02:07:02.413Z,997.09
2018-06-21T02:08:02.450Z,997.09
2018-06-21T02:09:02.489Z,997.09
2018-06-21T02:10:02.523Z,997.10
2018-06-21T02:11:02.559Z,997.11
2018-06-21T02:12:02.598Z,997.08
2018-06-21T02:13:02.631Z,997.07
2018-06-21T02:14:02.668Z,997.09
2018-06-21T02:15:02.709Z,997.06
2018-06-21T02:16:02.740Z,997.07
2018-06-21T02:17:02.791Z,997.06
2018-06-21T02:18:02.815Z,997.05
2018-06-21T02:19:02.854Z,997.06
2018-06-21T02:20:02.885Z,997.06
2018-06-21T02:21:02.941Z,997.10
2018-06-21T02:22:02.958Z,997.09
2018-06-21T02:23:02.996Z,997.10
2018-06-21T02:24:03.033Z,997.03
2018-06-21T02:25:03.067Z,997.06
2018-06-21T02:26:03.105Z,997.05
2018-06-21T02:27:03.142Z,997.02
2018-06-21T02:28:03.177Z,997.07
2018-06-21T02:29:03.213Z,997.09
2018-06-21T02:30:03.252Z,997.06
2018-06-21T02:31:03.287Z,997.10
2018-06-21T02:32:03.323Z,997.09
2018-06-21T02:33:03.360Z,997.10
2018-06-21T02:34:03.396Z,997.12
2018-06-21T02:35:03.433Z,997.07
2018-06-21T02:36:03.469Z,997.10
2018-06-21T02:37:03.505Z,997.08
2018-06-21T02:38:03.541Z,997.07
2018-06-21T02:39:03.583Z,997.06
2018-06-21T02:40:03.614Z,997.07
2018-06-21T02:41:03.650Z,997.07
2018-06-21T02:42:03.687Z,997.06
2018-06-21T02:43:03.724Z,997.07
2018-06-21T02:44:03.758Z,997.07
2018-06-21T02:45:03.796Z,997.09
2018-06-21T02:46:03.833Z,997.07
2018-06-21T02:47:03.868Z,997.05
2018-06-21T02:48:03.903Z,997.08
2018-06-21T02:49:03.941Z,997.05
2018-06-21T02:50:03.977Z,997.05
2018-06-21T02:51:04.013Z,997.06
2018-06-21T02:52:04.050Z,997.04
2018-06-21T02:53:04.085Z,997.09
2018-06-21T02:54:04.123Z,997.04
2018-06-21T02:55:04.158Z,997.04
2018-06-21T02:56:04.194Z,997.03
2018-06-21T02:57:04.232Z,997.00
2018-06-21T02:58:04.267Z,997.03
2018-06-21T02:59:05.860Z,997.01
2018-06-21T03:00:04.340Z,997.01
2018-06-21T03:01:04.375Z,997.02
2018-06-21T03:02:04.412Z,997.04
2018-06-21T03:03:04.449Z,997.05
2018-06-21T03:04:04.608Z,997.06
2018-06-21T03:05:04.544Z,997.09
2018-06-21T03:06:04.559Z,997.07
2018-06-21T03:07:04.595Z,997.08
2018-06-21T03:08:04.630Z,997.08
2018-06-21T03:09:04.666Z,997.09
2018-06-21T03:10:04.703Z,997.13
2018-06-21T03:11:04.739Z,997.13
2018-06-21T03:12:04.775Z,997.12
2018-06-21T03:13:04.815Z,997.11
2018-06-21T03:14:04.848Z,997.09
2018-06-21T03:15:04.884Z,997.16
2018-06-21T03:16:04.918Z,997.15
2018-06-21T03:17:04.955Z,997.13
2018-06-21T03:18:04.992Z,997.14
2018-06-21T03:19:05.028Z,997.14
2018-06-21T03:20:05.066Z,997.17
2018-06-21T03:21:05.100Z,997.18
2018-06-21T03:22:05.173Z,997.15
2018-06-21T03:23:05.173Z,997.18
2018-06-21T03:24:05.209Z,997.16
2018-06-21T03:25:05.246Z,997.15
2018-06-21T03:26:05.280Z,997.17
2018-06-21T03:27:05.318Z,997.17
2018-06-21T03:28:05.353Z,997.14
2018-06-21T03:29:05.389Z,997.12
2018-06-21T03:30:05.425Z,997.17
2018-06-21T03:31:05.462Z,997.14
2018-06-21T03:32:05.497Z,997.14
2018-06-21T03:33:05.535Z,997.15
2018-06-21T03:34:05.570Z,997.17
2018-06-21T03:35:05.655Z,997.19
2018-06-21T03:36:05.642Z,997.18
2018-06-21T03:37:05.687Z,997.20
2018-06-21T03:38:05.714Z,997.18
2018-06-21T03:39:05.751Z,997.20
2018-06-21T03:40:05.787Z,997.20
2018-06-21T03:41:05.822Z,997.21
2018-06-21T03:42:05.859Z,997.21
2018-06-21T03:43:05.895Z,997.20
2018-06-21T03:44:05.931Z,997.19
2018-06-21T03:45:05.967Z,997.23
2018-06-21T03:46:06.003Z,997.21
2018-06-21T03:47:06.039Z,997.24
2018-06-21T03:48:06.075Z,997.24
2018-06-21T03:49:06.111Z,997.30
2018-06-21T03:50:06.150Z,997.29
2018-06-21T03:51:06.184Z,997.30
2018-06-21T03:52:06.246Z,997.31
2018-06-21T03:53:06.257Z,997.32
2018-06-21T03:54:06.293Z,997.28
2018-06-21T03:55:06.333Z,997.29
2018-06-21T03:56:06.363Z,997.32
2018-06-21T03:57:06.400Z,997.34
2018-06-21T03:58:06.437Z,997.34
2018-06-21T03:59:06.474Z,997.32
2018-06-21T04:00:06.508Z,997.33
2018-06-21T04:01:06.545Z,997.35
2018-06-21T04:02:06.582Z,997.36
2018-06-21T04:03:06.656Z,997.34
2018-06-21T04:04:06.653Z,997.30
2018-06-21T04:05:06.690Z,997.28
2018-06-21T04:06:06.727Z,997.29
2018-06-21T04:07:06.766Z,997.32
2018-06-21T04:08:06.800Z,997.30
2018-06-21T04:09:06.835Z,997.31
2018-06-21T04:10:06.873Z,997.31
2018-06-21T04:11:06.909Z,997.30
2018-06-21T04:12:06.945Z,997.29
2018-06-21T04:13:06.981Z,997.28
2018-06-21T04:14:07.020Z,997.29
2018-06-21T04:15:07.054Z,997.29
2018-06-21T04:16:07.090Z,997.30
2018-06-21T04:17:07.126Z,997.32
2018-06-21T04:18:07.163Z,997.32
2018-06-21T04:19:07.201Z,997.33
2018-06-21T04:20:07.235Z,997.31
2018-06-21T04:21:07.272Z,997.33
2018-06-21T04:22:07.309Z,997.38
2018-06-21T04:23:07.345Z,997.40
2018-06-21T04:24:07.381Z,997.42
2018-06-21T04:25:07.418Z,997.46
2018-06-21T04:26:07.460Z,997.41
2018-06-21T04:27:07.496Z,997.44
2018-06-21T04:28:07.565Z,997.45
2018-06-21T04:29:07.565Z,997.45
2018-06-21T04:30:07.601Z,997.45
2018-06-21T04:31:07.639Z,997.43
2018-06-21T04:32:07.676Z,997.47
2018-06-21T04:33:07.712Z,997.45
2018-06-21T04:34:07.749Z,997.47
2018-06-21T04:35:07.785Z,997.45
2018-06-21T04:36:07.822Z,997.45
2018-06-21T04:37:07.858Z,997.46
2018-06-21T04:38:07.895Z,997.45
2018-06-21T04:39:07.933Z,997.48
2018-06-21T04:40:07.969Z,997.44
2018-06-21T04:41:08.007Z,997.47
2018-06-21T04:42:08.044Z,997.44
2018-06-21T04:43:08.081Z,997.42
2018-06-21T04:44:08.116Z,997.47
2018-06-21T04:45:08.154Z,997.45
2018-06-21T04:46:08.191Z,997.48
2018-06-21T04:47:08.228Z,997.46
2018-06-21T04:48:08.265Z,997.51
2018-06-21T04:49:08.305Z,997.49
2018-06-21T04:50:08.338Z,997.49
2018-06-21T04:51:08.376Z,997.48
2018-06-21T04:52:08.412Z,997.51
2018-06-21T04:53:08.449Z,997.53
2018-06-21T04:54:08.487Z,997.57
2018-06-21T04:55:08.527Z,997.52
2018-06-21T04:56:08.559Z,997.55
2018-06-21T04:57:08.599Z,997.55
2018-06-21T04:58:08.635Z,997.59
2018-06-21T04:59:08.673Z,997.54
2018-06-21T05:00:08.721Z,997.52
2018-06-21T05:01:08.747Z,997.56
2018-06-21T05:02:08.782Z,997.57
2018-06-21T05:03:08.821Z,997.56
2018-06-21T05:04:08.858Z,997.60
2018-06-21T05:05:08.894Z,997.60
2018-06-21T05:06:08.940Z,997.61
2018-06-21T05:07:08.971Z,997.60
2018-06-21T05:08:09.007Z,997.59
2018-06-21T05:09:09.044Z,997.59
2018-06-21T05:10:09.081Z,997.65
2018-06-21T05:11:09.120Z,997.59
2018-06-21T05:12:09.156Z,997.61
2018-06-21T05:13:09.194Z,997.59
2018-06-21T05:14:09.232Z,997.59
2018-06-21T05:15:09.272Z,997.56
2018-06-21T05:16:09.309Z,997.55
2018-06-21T05:17:09.343Z,997.56
2018-06-21T05:18:09.436Z,997.61
2018-06-21T05:19:09.419Z,997.60
2018-06-21T05:20:09.456Z,997.61
2018-06-21T05:21:09.494Z,997.58
2018-06-21T05:22:09.532Z,997.59
2018-06-21T05:23:09.572Z,997.63
2018-06-21T05:24:09.615Z,997.59
2018-06-21T05:25:09.705Z,997.63
2018-06-21T05:26:09.682Z,997.65
2018-06-21T05:27:09.727Z,997.65
2018-06-21T05:28:09.770Z,997.67
2018-06-21T05:29:09.796Z,997.64
2018-06-21T05:30:09.834Z,997.65
2018-06-21T05:31:09.870Z,997.65
2018-06-21T05:32:09.966Z,997.62
2018-06-21T05:33:09.946Z,997.66
2018-06-21T05:34:09.984Z,997.65
2018-06-21T05:35:10.021Z,997.64
2018-06-21T05:36:10.089Z,997.67
2018-06-21T05:37:10.097Z,997.69
2018-06-21T05:38:10.134Z,997.68
2018-06-21T05:39:10.172Z,997.69
2018-06-21T05:40:10.209Z,997.69
2018-06-21T05:41:10.250Z,997.71
2018-06-21T05:42:10.285Z,997.72
2018-06-21T05:43:10.324Z,997.81
2018-06-21T05:44:10.361Z,997.77
2018-06-21T05:45:10.400Z,997.77
2018-06-21T05:46:10.438Z,997.77
2018-06-21T05:47:10.476Z,997.76
2018-06-21T05:48:10.513Z,997.72
2018-06-21T05:49:10.551Z,997.77
2018-06-21T05:50:10.640Z,997.74
2018-06-21T05:51:10.628Z,997.68
2018-06-21T05:52:10.667Z,997.67
2018-06-21T05:53:10.704Z,997.66
2018-06-21T05:54:10.742Z,997.65
2018-06-21T05:55:10.782Z,997.62
2018-06-21T05:56:10.820Z,997.59
2018-06-21T05:57:10.858Z,997.69
2018-06-21T05:58:10.895Z,997.68
2018-06-21T05:59:10.935Z,997.66
2018-06-21T06:00:10.973Z,997.64
2018-06-21T06:01:11.011Z,997.68
2018-06-21T06:02:11.051Z,997.68
2018-06-21T06:03:11.090Z,997.71
2018-06-21T06:04:11.127Z,997.70
2018-06-21T06:05:11.166Z,997.74
2018-06-21T06:06:11.205Z,997.68
2018-06-21T06:07:11.244Z,997.66
2018-06-21T06:08:11.291Z,997.67
2018-06-21T06:09:11.329Z,997.67
2018-06-21T06:10:11.426Z,997.64
2018-06-21T06:11:11.398Z,997.66
2018-06-21T06:12:11.437Z,997.63
2018-06-21T06:13:11.476Z,997.64
2018-06-21T06:14:11.533Z,997.64
2018-06-21T06:15:11.558Z,997.67
2018-06-21T06:16:11.592Z,997.65
2018-06-21T06:17:11.633Z,997.64
2018-06-21T06:18:11.671Z,997.66
2018-06-21T06:19:11.709Z,997.62
2018-06-21T06:20:11.748Z,997.60
2018-06-21T06:21:11.787Z,997.63
2018-06-21T06:22:11.826Z,997.56
2018-06-21T06:23:11.865Z,997.58
2018-06-21T06:24:11.924Z,997.60
2018-06-21T06:25:11.944Z,997.61
2018-06-21T06:26:11.984Z,997.61
2018-06-21T06:27:12.022Z,997.61
2018-06-21T06:28:12.061Z,997.61
2018-06-21T06:29:12.100Z,997.61
2018-06-21T06:30:12.139Z,997.56
2018-06-21T06:31:12.178Z,997.60
2018-06-21T06:32:12.217Z,997.58
2018-06-21T06:33:12.256Z,997.59
2018-06-21T06:34:12.295Z,997.58
2018-06-21T06:35:12.335Z,997.56
2018-06-21T06:36:12.380Z,997.59
2018-06-21T06:37:12.414Z,997.56
2018-06-21T06:38:12.451Z,997.54
2018-06-21T06:39:12.493Z,997.56
2018-06-21T06:40:12.531Z,997.53
2018-06-21T06:41:12.571Z,997.52
2018-06-21T06:42:12.609Z,997.54
2018-06-21T06:43:12.650Z,997.51
2018-06-21T06:44:12.692Z,997.58
2018-06-21T06:45:12.728Z,997.52
2018-06-21T06:46:12.822Z,997.48
2018-06-21T06:47:12.807Z,997.50
2018-06-21T06:48:12.847Z,997.51
2018-06-21T06:49:12.885Z,997.50
2018-06-21T06:50:12.925Z,997.53
2018-06-21T06:51:12.970Z,997.53
2018-06-21T06:52:13.004Z,997.45
2018-06-21T06:53:13.044Z,997.43
2018-06-21T06:54:13.091Z,997.45
2018-06-21T06:55:13.124Z,997.41
2018-06-21T06:56:13.163Z,997.42
2018-06-21T06:57:13.203Z,997.46
2018-06-21T06:58:13.242Z,997.47
2018-06-21T06:59:13.284Z,997.45
2018-06-21T07:00:13.323Z,997.46
2018-06-21T07:01:13.362Z,997.47
2018-06-21T07:02:13.403Z,997.53
2018-06-21T07:03:13.442Z,997.53
2018-06-21T07:04:13.481Z,997.54
2018-06-21T07:05:13.522Z,997.58
2018-06-21T07:06:13.561Z,997.54
2018-06-21T07:07:13.607Z,997.60
2018-06-21T07:08:13.658Z,997.56
2018-06-21T07:09:13.684Z,997.56
2018-06-21T07:10:13.721Z,997.54
2018-06-21T07:11:13.761Z,997.56
2018-06-21T07:12:13.801Z,997.52
2018-06-21T07:13:13.841Z,997.58
2018-06-21T07:14:13.925Z,997.58
2018-06-21T07:15:13.920Z,997.61
2018-06-21T07:16:13.960Z,997.58
2018-06-21T07:17:14.001Z,997.60
2018-06-21T07:18:14.040Z,997.63
2018-06-21T07:19:14.082Z,997.62
2018-06-21T07:20:14.120Z,997.60
2018-06-21T07:21:14.161Z,997.61
2018-06-21T07:22:14.202Z,997.61
2018-06-21T07:23:14.240Z,997.60
2018-06-21T07:24:14.282Z,997.58
2018-06-21T07:25:14.321Z,997.54
2018-06-21T07:26:14.362Z,997.63
2018-06-21T07:27:14.505Z,997.63
2018-06-21T07:28:14.443Z,997.62
2018-06-21T07:29:14.482Z,997.62
2018-06-21T07:31:02.093Z,997.61
2018-06-21T07:32:02.131Z,997.59
2018-06-21T07:33:02.169Z,997.58
2018-06-21T07:34:02.209Z,997.57
2018-06-21T07:35:02.249Z,997.54
2018-06-21T07:36:02.291Z,997.50
2018-06-21T07:37:02.331Z,997.60
2018-06-21T07:38:02.371Z,997.57
2018-06-21T07:39:02.526Z,997.55
2018-06-21T07:40:02.451Z,997.50
2018-06-21T07:41:02.491Z,997.50
2018-06-21T07:42:02.533Z,997.52
2018-06-21T07:43:02.574Z,997.47
2018-06-21T07:44:02.612Z,997.41
2018-06-21T07:45:02.658Z,997.55
2018-06-21T07:46:02.695Z,997.55
2018-06-21T07:47:02.736Z,997.55
2018-06-21T07:48:02.778Z,997.56
2018-06-21T07:49:02.819Z,997.57
2018-06-21T07:50:02.860Z,997.57
2018-06-21T07:51:02.899Z,997.61
2018-06-21T07:52:02.938Z,997.62
2018-06-21T07:53:02.977Z,997.62
2018-06-21T07:54:03.019Z,997.66
2018-06-21T07:55:03.060Z,997.65
2018-06-21T07:56:03.100Z,997.65
2018-06-21T07:57:03.141Z,997.65
2018-06-21T07:58:03.182Z,997.60
2018-06-21T07:59:03.289Z,997.63
2018-06-21T08:00:03.264Z,997.64
2018-06-21T08:01:03.305Z,997.62
2018-06-21T08:02:03.346Z,997.62
2018-06-21T08:03:03.390Z,997.64
2018-06-21T08:04:03.427Z,997.63
2018-06-21T08:05:03.488Z,997.63
2018-06-21T08:06:03.509Z,997.69
2018-06-21T08:07:03.550Z,997.73
2018-06-21T08:08:03.590Z,997.77
2018-06-21T08:09:03.632Z,997.78
2018-06-21T08:10:03.673Z,997.79
2018-06-21T08:11:03.715Z,997.73
2018-06-21T08:12:03.756Z,997.67
2018-06-21T08:13:03.797Z,997.70
2018-06-21T08:14:03.840Z,997.77
2018-06-21T08:15:03.882Z,997.87
2018-06-21T08:16:03.921Z,997.83
2018-06-21T08:17:03.961Z,997.83
2018-06-21T08:18:04.004Z,997.81
2018-06-21T08:19:04.068Z,997.76
2018-06-21T08:20:04.111Z,997.67
2018-06-21T08:21:04.145Z,997.83
2018-06-21T08:22:04.190Z,997.63
2018-06-21T08:23:04.234Z,997.82
2018-06-21T08:24:04.271Z,997.78
2018-06-21T08:25:04.315Z,997.88
2018-06-21T08:26:04.356Z,997.89
2018-06-21T08:27:04.416Z,997.90
2018-06-21T08:28:04.441Z,997.90
2018-06-21T08:29:04.484Z,997.82
2018-06-21T08:30:04.506Z,997.87
2018-06-21T08:31:04.548Z,997.91
2018-06-21T08:32:04.591Z,997.87
2018-06-21T08:33:04.681Z,997.92
2018-06-21T08:34:04.674Z,997.93
2018-06-21T08:35:04.717Z,997.76
2018-06-21T08:36:04.758Z,997.71
2018-06-21T08:37:04.800Z,997.77
2018-06-21T08:38:04.845Z,997.80
2018-06-21T08:39:05.102Z,997.80
2018-06-21T08:40:05.253Z,997.81
2018-06-21T08:41:04.969Z,997.91
2018-06-21T08:42:05.062Z,997.73
2018-06-21T08:43:05.057Z,997.69
2018-06-21T08:44:05.154Z,997.86
2018-06-21T08:45:05.139Z,997.85
2018-06-21T08:46:05.249Z,997.87
2018-06-21T08:47:05.223Z,997.87
2018-06-21T08:48:05.265Z,997.83
2018-06-21T08:49:05.307Z,997.83
2018-06-21T08:50:05.350Z,997.82
2018-06-21T08:51:05.392Z,997.78
2018-06-21T08:52:05.458Z,997.76
2018-06-21T08:53:05.475Z,997.74
2018-06-21T08:54:05.518Z,997.75
2018-06-21T08:55:05.568Z,997.76
2018-06-21T08:56:05.607Z,997.77
2018-06-21T08:57:05.642Z,997.78
2018-06-21T08:58:05.686Z,997.81
2018-06-21T08:59:05.728Z,997.82
2018-06-21T09:00:05.776Z,997.82
2018-06-21T09:01:05.812Z,997.85
2018-06-21T09:02:05.856Z,997.85
2018-06-21T09:03:05.900Z,997.87
2018-06-21T09:04:05.942Z,997.85
2018-06-21T09:05:05.983Z,997.82
2018-06-21T09:06:06.026Z,997.86
2018-06-21T09:07:06.069Z,997.87
2018-06-21T09:08:06.111Z,997.79
2018-06-21T09:09:06.152Z,997.80
2018-06-21T09:10:06.197Z,997.78
2018-06-21T09:11:06.238Z,997.80
2018-06-21T09:12:06.281Z,997.83
2018-06-21T09:13:06.323Z,997.83
2018-06-21T09:14:06.367Z,997.85
2018-06-21T09:15:06.409Z,997.85
2018-06-21T09:16:06.452Z,997.85
2018-06-21T09:17:06.495Z,997.83
2018-06-21T09:18:06.538Z,997.85
2018-06-21T09:19:06.579Z,997.89
2018-06-21T09:20:06.624Z,997.88
2018-06-21T09:21:06.693Z,997.87
2018-06-21T09:22:06.710Z,997.84
2018-06-21T09:23:06.752Z,997.90
2018-06-21T09:24:06.794Z,997.86
2018-06-21T09:25:06.850Z,997.89
2018-06-21T09:26:06.889Z,997.88
2018-06-21T09:27:06.925Z,997.97
2018-06-21T09:28:06.986Z,997.96
2018-06-21T09:29:07.090Z,997.99
2018-06-21T09:30:07.054Z,997.90
2018-06-21T09:32:07.142Z,997.87
2018-06-21T09:33:07.187Z,997.94
2018-06-21T09:34:07.227Z,997.89
2018-06-21T09:35:07.278Z,998.02
2018-06-21T09:36:07.316Z,998.04
2018-06-21T09:37:07.359Z,998.06
2018-06-21T09:38:07.421Z,998.07
2018-06-21T09:39:07.447Z,998.09
2018-06-21T09:40:07.491Z,997.95
2018-06-21T09:41:07.534Z,997.95
2018-06-21T09:42:07.580Z,997.88
2018-06-21T09:43:07.624Z,997.87
2018-06-21T09:44:07.666Z,998.01
2018-06-21T09:45:07.709Z,997.88
2018-06-21T09:46:07.754Z,997.98
2018-06-21T09:47:07.818Z,997.93
2018-06-21T09:48:07.843Z,997.98
2018-06-21T09:49:07.886Z,997.92
2018-06-21T09:50:07.930Z,997.93
2018-06-21T09:51:07.974Z,997.96
2018-06-21T09:52:08.023Z,997.94
2018-06-21T09:53:08.061Z,997.93
2018-06-21T09:54:08.105Z,997.94
2018-06-21T09:55:08.150Z,997.90
2018-06-21T09:56:08.196Z,997.93
2018-06-21T09:57:08.238Z,997.86
2018-06-21T09:58:08.281Z,997.90
2018-06-21T09:59:08.327Z,998.03
2018-06-21T10:00:08.371Z,998.04
2018-06-21T10:01:08.414Z,998.02
2018-06-21T10:02:08.460Z,998.15
2018-06-21T10:03:08.504Z,998.09
2018-06-21T10:04:08.547Z,998.15
2018-06-21T10:05:08.590Z,998.20
2018-06-21T10:06:08.635Z,998.15
2018-06-21T10:07:08.703Z,998.12
2018-06-21T10:08:08.723Z,998.13
2018-06-21T10:09:08.766Z,998.16
2018-06-21T10:10:08.811Z,998.13
2018-06-21T10:11:08.855Z,998.06
2018-06-21T10:12:08.900Z,998.09
2018-06-21T10:13:08.965Z,998.10
2018-06-21T10:14:08.991Z,998.16
2018-06-21T10:15:09.034Z,998.17
2018-06-21T10:16:09.081Z,998.17
2018-06-21T10:17:09.124Z,998.18
2018-06-21T10:18:09.170Z,998.20
2018-06-21T10:19:09.214Z,998.28
2018-06-21T10:20:09.260Z,998.09
2018-06-21T10:21:09.303Z,998.29
2018-06-21T10:22:09.348Z,998.13
2018-06-21T10:23:09.450Z,998.26
2018-06-21T10:24:09.441Z,998.05
2018-06-21T10:25:09.489Z,997.98
2018-06-21T10:26:09.530Z,997.93
2018-06-21T10:27:09.577Z,997.96
2018-06-21T10:28:09.622Z,997.95
2018-06-21T10:29:09.668Z,998.09
2018-06-21T10:30:09.713Z,998.10
2018-06-21T10:31:09.759Z,997.97
2018-06-21T10:32:09.806Z,998.11
2018-06-21T10:33:09.851Z,998.11
2018-06-21T10:34:09.897Z,998.05
2018-06-21T10:35:09.995Z,998.05
2018-06-21T10:36:09.987Z,997.99
2018-06-21T10:37:10.033Z,997.99
2018-06-21T10:38:10.080Z,997.87
2018-06-21T10:39:10.125Z,998.02
2018-06-21T10:40:10.170Z,997.99
2018-06-21T10:41:10.216Z,997.85
2018-06-21T10:42:10.264Z,997.83
2018-06-21T10:43:10.308Z,998.01
2018-06-21T10:44:10.354Z,998.02
2018-06-21T10:45:10.399Z,998.06
2018-06-21T10:46:10.445Z,998.08
2018-06-21T10:47:10.491Z,997.95
2018-06-21T10:48:10.537Z,997.95
2018-06-21T10:49:10.638Z,997.89
2018-06-21T10:50:10.631Z,997.95
2018-06-21T10:51:10.678Z,997.98
2018-06-21T10:52:10.726Z,997.98
2018-06-21T10:53:10.774Z,998.01
2018-06-21T10:54:10.819Z,998.07
2018-06-21T10:55:10.885Z,998.09
2018-06-21T10:56:10.935Z,997.74
2018-06-21T10:57:10.978Z,998.13
2018-06-21T10:58:13.635Z,998.18
2018-06-21T10:59:13.687Z,998.16
2018-06-21T11:00:11.112Z,998.12
2018-06-21T11:01:11.160Z,998.06
2018-06-21T11:02:11.208Z,998.11
2018-06-21T11:03:11.291Z,998.37
2018-06-21T11:04:11.310Z,998.31
2018-06-21T11:05:11.359Z,998.31
2018-06-21T11:06:11.409Z,997.93
2018-06-21T11:07:11.459Z,997.83
2018-06-21T11:08:11.510Z,997.77
2018-06-21T11:09:11.560Z,997.77
2018-06-21T11:10:11.611Z,997.78
2018-06-21T11:11:11.661Z,997.61
2018-06-21T11:12:11.711Z,997.59
2018-06-21T11:13:11.761Z,997.76
2018-06-21T11:14:11.812Z,997.75
2018-06-21T11:15:11.865Z,997.82
2018-06-21T11:16:11.913Z,997.72
2018-06-21T11:17:11.961Z,997.85
2018-06-21T11:18:12.010Z,997.97
2018-06-21T11:19:12.061Z,997.99
2018-06-21T11:20:12.111Z,998.09
2018-06-21T11:21:12.158Z,998.07
2018-06-21T11:22:12.206Z,997.98
2018-06-21T11:23:12.257Z,998.06
2018-06-21T11:24:12.380Z,997.53
2018-06-21T11:25:12.354Z,997.66
2018-06-21T11:26:12.404Z,997.51
2018-06-21T11:27:12.454Z,998.06
2018-06-21T11:28:12.503Z,998.23
2018-06-21T11:29:12.552Z,998.08
2018-06-21T11:30:12.617Z,998.02
2018-06-21T11:31:12.650Z,997.99
2018-06-21T11:32:12.701Z,998.10
2018-06-21T11:33:12.749Z,998.02
2018-06-21T11:34:12.799Z,998.21
2018-06-21T11:35:12.848Z,998.28
2018-06-21T11:36:12.897Z,998.43
2018-06-21T11:37:12.947Z,998.41
2018-06-21T11:38:13.003Z,998.08
2018-06-21T11:39:13.048Z,997.69
2018-06-21T11:40:13.139Z,997.80
2018-06-21T11:41:13.147Z,998.39
2018-06-21T11:42:13.199Z,998.56
2018-06-21T11:43:13.256Z,998.42
2018-06-21T11:44:13.300Z,997.88
2018-06-21T11:45:13.351Z,997.73
2018-06-21T11:46:13.422Z,997.60
2018-06-21T11:47:13.457Z,998.02
2018-06-21T11:48:13.541Z,998.28
2018-06-21T11:49:13.555Z,998.47
2018-06-21T11:50:13.606Z,998.61
2018-06-21T11:51:13.663Z,997.51
2018-06-21T11:52:13.736Z,997.48
2018-06-21T11:53:13.760Z,997.66
2018-06-21T11:54:13.812Z,997.48
2018-06-21T11:55:13.863Z,997.43
2018-06-21T11:56:13.914Z,997.65
2018-06-21T11:57:13.971Z,997.88
2018-06-21T11:58:14.014Z,998.54
2018-06-21T11:59:14.066Z,998.51
2018-06-21T12:00:14.117Z,998.65
2018-06-21T12:01:14.169Z,998.55
2018-06-21T12:02:14.219Z,998.03
2018-06-21T12:03:14.278Z,998.00
2018-06-21T12:04:14.320Z,997.22
2018-06-21T12:05:14.372Z,997.22
2018-06-21T12:06:14.421Z,997.21
2018-06-21T12:07:14.471Z,997.35
2018-06-21T12:08:14.522Z,997.30
2018-06-21T12:09:14.573Z,997.29
2018-06-21T12:10:14.623Z,997.30
2018-06-21T12:11:14.672Z,997.25
2018-06-21T12:12:14.727Z,997.28
2018-06-21T12:13:14.772Z,997.31
2018-06-21T12:14:14.823Z,997.38
2018-06-21T12:15:14.871Z,998.55
2018-06-21T12:16:14.920Z,998.32
2018-06-21T12:17:14.967Z,998.50
2018-06-21T12:18:15.016Z,998.39
2018-06-21T12:19:15.065Z,997.53
2018-06-21T12:20:15.162Z,998.57
2018-06-21T12:21:15.161Z,998.58
2018-06-21T12:22:15.213Z,998.49
2018-06-21T12:23:15.263Z,998.43
2018-06-21T12:24:15.316Z,998.08
2018-06-21T12:25:15.363Z,998.29
2018-06-21T12:26:15.464Z,998.47
2018-06-21T12:27:15.465Z,998.39
2018-06-21T12:28:15.518Z,998.48
2018-06-21T12:29:15.568Z,998.39
2018-06-21T12:30:15.620Z,998.44
2018-06-21T12:31:15.676Z,998.45